Terminal Aerodrome Forecast
Issued by NWS

Home | Current Version | Previous Version | Text Only | Print | Product List | Glossary On
Versions: 1 2 3 4 5 6 7 8 9 10 11 12 13 14
000
FTUS45 KRIW 220526
TAFBPI
TAF
KBPI 220526Z 2206/2306 18006KT P6SM SCT110
     FM221700 25008KT P6SM SCT100
     FM222100 28016G26KT P6SM SCT090
     FM230200 31011KT P6SM SCT100
     FM230500 36005KT P6SM SKC=

USA.gov is the U.S. government's official web portal to all federal, state and local government web resources and services.